Time;durP1;ratioP1;P1;durP2;ratioP2;P2;SDS_P1;SDS_P2;PMS_P1;PMS_P2;Temp;Humidity;BMP_temperature;BMP_pressure;BME280_temperature;BME280_humidity;BME280_pressure;Samples;Min_cycle;Max_cycle;Signal;HPM_P1;HPM_P2
2021/03/05 00:00:20;;;;;;;17.98;8.98;;;5.90;99.90;;;;;;5034988;28;20097;-74
2021/03/05 00:02:46;;;;;;;13.85;8.55;;;5.80;99.90;;;;;;5034928;28;20017;-74
2021/03/05 00:05:12;;;;;;;13.57;8.30;;;5.80;99.90;;;;;;5034824;28;20025;-74
2021/03/05 00:07:41;;;;;;;13.35;9.05;;;5.70;99.90;;;;;;5035196;28;20100;-74
2021/03/05 00:10:14;;;;;;;15.10;8.15;;;5.70;99.90;;;;;;5034739;28;20401;-74
2021/03/05 00:12:40;;;;;;;26.83;8.57;;;5.70;99.90;;;;;;5050205;28;20544;-74
2021/03/05 00:15:08;;;;;;;15.90;8.02;;;5.80;99.90;;;;;;5034527;28;20029;-74
2021/03/05 00:17:34;;;;;;;15.20;8.05;;;5.90;99.90;;;;;;5034605;28;20033;-74
2021/03/05 00:20:01;;;;;;;12.98;7.53;;;5.90;99.90;;;;;;5034520;28;20025;-74
2021/03/05 00:22:27;;;;;;;16.98;8.27;;;5.90;99.90;;;;;;5034556;28;20025;-74
2021/03/05 00:24:53;;;;;;;12.65;7.70;;;5.90;99.90;;;;;;5017657;28;20116;-75
2021/03/05 00:27:19;;;;;;;15.43;8.40;;;6.00;99.90;;;;;;5034660;28;20083;-75
2021/03/05 00:29:44;;;;;;;19.10;9.10;;;6.00;99.90;;;;;;5034591;28;20551;-75
2021/03/05 00:32:10;;;;;;;13.90;7.43;;;5.80;99.90;;;;;;5034709;28;20368;-75
2021/03/05 00:34:36;;;;;;;12.23;8.20;;;5.70;99.90;;;;;;5049638;28;20059;-75
2021/03/05 00:37:03;;;;;;;16.10;8.00;;;5.70;99.90;;;;;;5034426;28;20109;-75
2021/03/05 00:39:28;;;;;;;27.73;9.25;;;5.80;99.90;;;;;;5034330;28;20026;-75
2021/03/05 00:41:55;;;;;;;20.92;9.10;;;5.80;99.90;;;;;;5034262;28;20024;-76
2021/03/05 00:44:21;;;;;;;24.25;8.25;;;5.90;99.90;;;;;;5016511;28;20606;-75
2021/03/05 00:46:47;;;;;;;23.05;8.40;;;6.00;99.90;;;;;;5033931;28;20025;-75
2021/03/05 00:49:13;;;;;;;14.88;7.75;;;5.90;99.90;;;;;;5016333;28;20028;-75
2021/03/05 00:51:39;;;;;;;13.30;8.10;;;5.90;99.90;;;;;;5033965;28;20037;-76
2021/03/05 00:54:05;;;;;;;18.88;9.60;;;5.90;99.90;;;;;;5016197;28;20485;-75
2021/03/05 00:56:30;;;;;;;15.13;7.78;;;5.80;99.90;;;;;;5033858;28;20075;-75
2021/03/05 00:58:56;;;;;;;16.70;8.27;;;5.80;99.90;;;;;;5034160;28;20107;-75
2021/03/05 01:01:22;;;;;;;17.80;9.15;;;5.70;99.90;;;;;;5016194;28;20045;-75
2021/03/05 01:03:48;;;;;;;15.80;7.82;;;5.80;99.90;;;;;;5032721;28;20461;-75
2021/03/05 01:06:13;;;;;;;17.75;6.60;;;5.70;99.90;;;;;;5033631;28;20029;-76
2021/03/05 01:08:39;;;;;;;13.93;6.95;;;5.80;99.90;;;;;;5033982;28;20100;-75
2021/03/05 01:11:05;;;;;;;12.55;7.40;;;5.80;99.90;;;;;;5048926;28;20396;-75
2021/03/05 01:13:31;;;;;;;11.15;7.07;;;5.80;99.90;;;;;;5033651;28;20362;-75
2021/03/05 01:15:56;;;;;;;11.68;7.13;;;5.80;99.90;;;;;;5048726;28;20033;-75
2021/03/05 01:18:22;;;;;;;15.15;7.85;;;5.80;99.90;;;;;;5033408;28;20256;-75
2021/03/05 01:20:48;;;;;;;14.52;6.85;;;5.90;99.90;;;;;;5033156;28;20489;-75
2021/03/05 01:23:15;;;;;;;13.77;7.53;;;5.90;99.90;;;;;;5033372;28;20017;-75
2021/03/05 01:25:42;;;;;;;10.75;5.97;;;6.00;99.90;;;;;;5033221;28;20089;-75
2021/03/05 01:28:07;;;;;;;14.25;6.95;;;6.10;99.90;;;;;;5033250;28;20031;-75
2021/03/05 01:30:33;;;;;;;11.52;6.20;;;6.20;99.90;;;;;;5033093;28;20448;-75
2021/03/05 01:32:59;;;;;;;12.25;5.72;;;6.10;99.90;;;;;;5033301;28;20082;-76
2021/03/05 01:35:27;;;;;;;8.38;5.90;;;6.10;99.90;;;;;;5033248;28;20220;-75
2021/03/05 01:37:53;;;;;;;11.75;5.32;;;6.00;99.90;;;;;;5015532;28;20040;-75
2021/03/05 01:40:31;;;;;;;10.35;5.82;;;6.00;99.90;;;;;;5033017;28;20096;-75
2021/03/05 01:42:57;;;;;;;9.82;4.88;;;6.10;99.90;;;;;;5015373;28;20028;-76
2021/03/05 01:45:27;;;;;;;9.55;5.47;;;6.20;99.90;;;;;;5032801;28;20041;-75
2021/03/05 01:47:55;;;;;;;10.70;5.40;;;6.30;99.90;;;;;;5032863;28;20497;-75
2021/03/05 01:50:25;;;;;;;12.07;4.68;;;6.30;99.90;;;;;;5032821;28;20473;-75
2021/03/05 01:53:01;;;;;;;9.40;4.47;;;6.40;99.90;;;;;;5032904;28;20033;-75
2021/03/05 01:55:27;;;;;;;10.15;5.45;;;6.30;99.90;;;;;;5032529;28;20025;-75
2021/03/05 01:57:54;;;;;;;7.78;4.38;;;6.30;99.90;;;;;;5014878;28;20080;-75
2021/03/05 02:00:41;;;;;;;12.50;5.03;;;6.20;99.90;;;;;;5015062;28;20022;-75
2021/03/05 02:03:08;;;;;;;9.43;4.70;;;6.20;99.90;;;;;;5032719;28;20030;-75
2021/03/05 02:05:35;;;;;;;10.43;4.82;;;6.30;99.90;;;;;;5014861;28;20112;-75
2021/03/05 02:08:01;;;;;;;7.13;4.80;;;6.10;99.90;;;;;;5014960;28;20018;-75
2021/03/05 02:10:27;;;;;;;7.35;4.47;;;6.10;99.90;;;;;;5033031;28;20029;-76
2021/03/05 02:12:53;;;;;;;5.55;3.72;;;6.00;99.90;;;;;;5014904;28;20087;-75
2021/03/05 02:15:19;;;;;;;6.03;3.80;;;6.00;99.90;;;;;;5014448;28;20030;-76
2021/03/05 02:18:11;;;;;;;9.98;3.95;;;5.90;99.90;;;;;;5032381;28;20017;-75
2021/03/05 02:21:26;;;;;;;6.03;3.87;;;5.90;99.90;;;;;;5001515;28;20228;-75
2021/03/05 02:24:11;;;;;;;7.65;4.38;;;6.00;99.90;;;;;;5032378;28;20274;-76
2021/03/05 02:27:10;;;;;;;7.57;4.50;;;5.90;99.90;;;;;;5032170;28;20512;-75
2021/03/05 02:29:45;;;;;;;7.38;3.80;;;6.00;99.90;;;;;;5032589;28;20026;-76
2021/03/05 02:32:17;;;;;;;6.72;3.95;;;5.80;99.90;;;;;;5014684;28;20047;-75
2021/03/05 02:34:46;;;;;;;6.20;4.18;;;5.80;99.90;;;;;;5032245;28;20017;-76
2021/03/05 02:37:13;;;;;;;5.00;4.13;;;5.80;99.90;;;;;;5032225;28;20034;-75
2021/03/05 02:39:46;;;;;;;5.80;4.22;;;5.80;99.90;;;;;;5032094;28;20052;-75
2021/03/05 02:42:26;;;;;;;8.13;5.25;;;5.70;99.90;;;;;;5032166;28;20101;-75
2021/03/05 02:44:57;;;;;;;6.45;4.95;;;5.70;99.90;;;;;;5032023;28;20026;-75
2021/03/05 02:47:24;;;;;;;8.60;5.28;;;5.70;99.90;;;;;;5032008;28;20062;-75
2021/03/05 02:49:54;;;;;;;7.40;5.13;;;5.60;99.90;;;;;;5014336;28;20033;-75
2021/03/05 02:52:21;;;;;;;6.25;4.85;;;5.60;99.90;;;;;;5014354;28;20393;-75
2021/03/05 02:54:52;;;;;;;8.50;4.53;;;5.70;99.90;;;;;;5031844;28;20114;-75
2021/03/05 02:57:21;;;;;;;8.90;5.47;;;5.60;99.90;;;;;;5032337;28;20083;-75
2021/03/05 02:59:48;;;;;;;6.50;4.40;;;5.70;99.90;;;;;;5031790;28;20041;-75
2021/03/05 03:02:15;;;;;;;5.00;3.60;;;5.60;99.90;;;;;;5032006;28;20030;-75
2021/03/05 03:04:43;;;;;;;6.10;4.57;;;5.60;99.90;;;;;;5014017;28;20083;-75
2021/03/05 03:07:14;;;;;;;5.70;4.32;;;5.50;99.90;;;;;;5031765;28;20057;-75
2021/03/05 03:09:40;;;;;;;5.72;3.97;;;5.40;99.90;;;;;;5014232;28;20034;-75
2021/03/05 03:12:09;;;;;;;7.22;4.32;;;5.40;99.90;;;;;;5032295;28;20036;-75
2021/03/05 03:14:40;;;;;;;7.28;3.67;;;5.40;99.90;;;;;;5046912;28;20033;-75
2021/03/05 03:17:07;;;;;;;5.30;3.87;;;5.30;99.90;;;;;;5031761;28;20218;-75
2021/03/05 03:19:34;;;;;;;6.82;3.63;;;5.20;99.90;;;;;;5031870;28;20032;-75
2021/03/05 03:22:02;;;;;;;5.47;3.50;;;5.20;99.90;;;;;;5031700;28;20048;-75
2021/03/05 03:24:28;;;;;;;3.80;3.45;;;5.30;99.90;;;;;;5013775;28;20465;-76
2021/03/05 03:26:53;;;;;;;5.00;3.95;;;5.20;99.90;;;;;;5031970;28;20057;-75
2021/03/05 03:29:19;;;;;;;4.80;3.47;;;5.30;99.90;;;;;;5017784;28;20025;-75
2021/03/05 03:31:46;;;;;;;6.00;3.25;;;5.40;99.90;;;;;;5035359;28;20506;-75
2021/03/05 03:34:12;;;;;;;4.25;3.30;;;5.40;99.90;;;;;;5035342;28;20136;-75
2021/03/05 03:36:40;;;;;;;4.60;3.22;;;5.30;99.90;;;;;;5035254;28;20017;-75
2021/03/05 03:39:09;;;;;;;5.78;3.10;;;5.20;99.90;;;;;;5035221;28;20030;-75
2021/03/05 03:41:38;;;;;;;7.65;4.13;;;5.20;99.90;;;;;;5050771;28;20029;-75
2021/03/05 03:44:12;;;;;;;4.10;3.25;;;5.10;99.90;;;;;;5033995;28;20565;-75
2021/03/05 03:46:43;;;;;;;6.80;3.58;;;5.20;99.90;;;;;;5017395;28;20022;-75
2021/03/05 03:49:21;;;;;;;3.65;2.92;;;5.20;99.90;;;;;;5035025;28;20018;-75
2021/03/05 03:51:53;;;;;;;4.35;2.97;;;5.10;99.90;;;;;;5035138;28;20049;-75
2021/03/05 03:54:20;;;;;;;4.30;3.17;;;5.10;99.90;;;;;;5035009;28;20099;-75
2021/03/05 03:56:49;;;;;;;4.85;3.17;;;5.00;99.90;;;;;;5034943;28;20755;-75
2021/03/05 03:59:17;;;;;;;5.03;3.50;;;4.90;99.90;;;;;;5034844;28;20032;-75
2021/03/05 04:01:46;;;;;;;5.65;3.58;;;4.90;99.90;;;;;;5034837;28;20389;-75
2021/03/05 04:04:15;;;;;;;5.10;3.30;;;4.90;99.90;;;;;;5034807;28;20021;-75
2021/03/05 04:06:44;;;;;;;6.38;3.53;;;4.90;99.90;;;;;;5034643;28;20018;-75
2021/03/05 04:09:11;;;;;;;4.63;3.53;;;4.90;99.90;;;;;;5016943;28;20029;-75
2021/03/05 04:11:40;;;;;;;5.85;3.70;;;4.90;99.90;;;;;;5034883;28;20096;-75
2021/03/05 04:14:07;;;;;;;6.13;4.07;;;4.90;99.90;;;;;;5034651;28;20026;-75
2021/03/05 04:16:33;;;;;;;6.65;4.05;;;4.80;99.90;;;;;;5034445;28;20021;-75
2021/03/05 04:18:58;;;;;;;5.20;3.60;;;4.80;99.90;;;;;;5034577;28;20420;-75
2021/03/05 04:21:32;;;;;;;5.38;3.95;;;4.70;99.90;;;;;;5034244;28;20018;-75
2021/03/05 04:23:57;;;;;;;9.70;4.00;;;4.70;99.90;;;;;;5034565;28;20022;-75
2021/03/05 04:26:23;;;;;;;4.93;3.35;;;4.80;99.90;;;;;;5034357;28;20029;-75
2021/03/05 04:28:49;;;;;;;4.78;3.88;;;4.80;99.90;;;;;;5034635;28;20042;-76
2021/03/05 04:31:15;;;;;;;6.35;4.18;;;4.80;99.90;;;;;;5034563;28;20025;-75
2021/03/05 04:33:40;;;;;;;7.93;4.15;;;4.90;99.90;;;;;;5034322;28;20491;-75
2021/03/05 04:36:06;;;;;;;6.47;4.05;;;4.90;99.90;;;;;;5034016;28;20412;-75
2021/03/05 04:38:32;;;;;;;8.02;3.88;;;5.00;99.90;;;;;;5016428;28;20060;-75
2021/03/05 04:40:58;;;;;;;5.38;4.38;;;5.00;99.90;;;;;;5034309;28;20029;-75
2021/03/05 04:43:24;;;;;;;6.03;4.53;;;4.90;99.90;;;;;;5016428;28;20410;-75
2021/03/05 04:45:50;;;;;;;4.80;3.95;;;4.80;99.90;;;;;;5034223;28;20018;-75
2021/03/05 04:48:16;;;;;;;7.07;4.10;;;4.80;99.90;;;;;;5034029;28;20037;-75
2021/03/05 04:50:41;;;;;;;5.57;4.38;;;4.90;99.90;;;;;;5016026;28;20479;-75
2021/03/05 04:53:07;;;;;;;9.90;5.45;;;4.80;99.90;;;;;;5033925;28;20025;-75
2021/03/05 04:55:34;;;;;;;5.95;4.75;;;4.80;99.90;;;;;;5033603;28;20110;-75
2021/03/05 04:57:59;;;;;;;9.27;4.63;;;4.80;99.90;;;;;;5033772;28;20025;-75
2021/03/05 05:00:25;;;;;;;7.22;4.63;;;4.90;99.90;;;;;;5033811;28;20022;-75
2021/03/05 05:02:51;;;;;;;5.80;4.10;;;5.00;99.90;;;;;;5033804;28;20080;-75
2021/03/05 05:05:17;;;;;;;7.10;4.60;;;5.00;99.90;;;;;;5033567;28;20389;-75
2021/03/05 05:07:43;;;;;;;8.95;4.85;;;4.90;99.90;;;;;;5033556;28;20060;-75
2021/03/05 05:10:10;;;;;;;7.53;4.85;;;4.90;99.90;;;;;;5033503;28;20033;-75
2021/03/05 05:12:35;;;;;;;7.95;4.57;;;5.00;99.90;;;;;;5015825;28;20224;-75
2021/03/05 05:15:02;;;;;;;7.15;4.72;;;5.10;99.90;;;;;;5033376;28;20025;-75
2021/03/05 05:17:27;;;;;;;7.25;4.97;;;5.20;99.90;;;;;;5033410;28;20021;-75
2021/03/05 05:19:54;;;;;;;7.45;5.32;;;5.10;99.90;;;;;;5033314;28;20389;-75
2021/03/05 05:22:20;;;;;;;5.53;4.32;;;5.10;99.90;;;;;;5015221;28;20171;-75
2021/03/05 05:24:46;;;;;;;7.80;5.03;;;5.10;99.90;;;;;;5015485;28;20021;-75
2021/03/05 05:27:12;;;;;;;6.28;4.90;;;5.10;99.90;;;;;;5033237;28;20025;-75
2021/03/05 05:29:37;;;;;;;7.45;5.78;;;5.20;99.90;;;;;;5033128;28;20026;-76
2021/03/05 05:32:03;;;;;;;11.13;5.15;;;5.20;99.90;;;;;;5015381;28;20036;-76
2021/03/05 05:34:29;;;;;;;10.68;5.75;;;5.30;99.90;;;;;;5032945;28;20026;-75
2021/03/05 05:36:55;;;;;;;8.60;5.15;;;5.40;99.90;;;;;;5033072;28;20426;-75
2021/03/05 05:39:21;;;;;;;8.70;5.88;;;5.30;99.90;;;;;;5032940;28;20022;-75
2021/03/05 05:41:46;;;;;;;10.50;6.13;;;5.40;99.90;;;;;;5032834;28;20034;-75
2021/03/05 05:44:12;;;;;;;9.63;5.88;;;5.50;99.90;;;;;;5032909;28;20022;-76
2021/03/05 05:46:39;;;;;;;9.10;5.90;;;5.50;99.90;;;;;;5032780;28;20096;-75
2021/03/05 05:49:07;;;;;;;8.55;5.95;;;5.50;99.90;;;;;;5032817;28;20029;-75
2021/03/05 05:51:35;;;;;;;10.70;6.75;;;5.50;99.90;;;;;;5031955;28;20034;-75
2021/03/05 05:54:08;;;;;;;9.55;6.88;;;5.50;99.90;;;;;;5032780;28;20028;-75
2021/03/05 05:56:36;;;;;;;12.70;6.28;;;5.60;99.90;;;;;;5014988;28;20076;-75
2021/03/05 05:59:02;;;;;;;13.40;6.88;;;5.70;99.90;;;;;;5014719;28;20040;-75
2021/03/05 06:01:33;;;;;;;8.95;5.95;;;5.70;99.90;;;;;;5015121;28;20021;-75
2021/03/05 06:04:01;;;;;;;10.98;6.18;;;5.80;99.90;;;;;;5014751;28;20484;-75
2021/03/05 06:06:28;;;;;;;11.38;5.97;;;5.70;99.90;;;;;;5032449;28;20100;-75
2021/03/05 06:09:02;;;;;;;9.75;6.65;;;5.70;99.90;;;;;;5032313;28;20123;-75
2021/03/05 06:11:31;;;;;;;14.70;6.53;;;5.60;99.90;;;;;;5032417;28;20062;-75
2021/03/05 06:14:00;;;;;;;9.63;6.72;;;5.50;99.90;;;;;;5014665;28;20484;-75
2021/03/05 06:16:26;;;;;;;9.60;6.70;;;5.60;99.90;;;;;;5014452;28;20477;-76
2021/03/05 06:18:52;;;;;;;8.38;6.05;;;5.50;99.90;;;;;;5038122;28;20024;-75
2021/03/05 06:21:38;;;;;;;9.10;6.30;;;5.40;99.90;;;;;;5035795;28;20029;-75
2021/03/05 06:24:07;;;;;;;9.10;6.35;;;5.30;99.90;;;;;;5018151;28;20017;-76
2021/03/05 06:26:49;;;;;;;13.02;6.68;;;5.30;99.90;;;;;;5041226;28;20029;-75
2021/03/05 06:29:15;;;;;;;10.60;6.75;;;5.20;99.90;;;;;;5035520;28;20032;-75
2021/03/05 06:31:41;;;;;;;12.25;7.40;;;5.30;99.90;;;;;;5035379;28;20025;-75
2021/03/05 06:34:07;;;;;;;10.07;6.90;;;5.30;99.90;;;;;;5039705;28;20025;-75
2021/03/05 06:36:34;;;;;;;8.75;6.85;;;5.30;99.90;;;;;;5044257;28;20446;-76
2021/03/05 06:39:00;;;;;;;9.52;6.35;;;5.50;99.90;;;;;;5039848;28;20423;-76
2021/03/05 06:41:28;;;;;;;9.48;6.20;;;5.60;99.90;;;;;;5022993;28;20025;-76
2021/03/05 06:43:56;;;;;;;11.25;6.63;;;5.60;99.90;;;;;;5041970;28;20031;-75
2021/03/05 06:46:30;;;;;;;14.88;6.90;;;5.70;99.90;;;;;;5035373;28;20113;-76
2021/03/05 06:48:57;;;;;;;14.02;7.13;;;5.90;99.90;;;;;;5042105;28;20043;-75
2021/03/05 06:51:24;;;;;;;10.98;7.03;;;5.90;99.90;;;;;;5040332;28;20060;-76
2021/03/05 06:54:00;;;;;;;13.50;6.53;;;5.90;99.90;;;;;;5041176;28;20029;-75
2021/03/05 06:56:27;;;;;;;10.38;6.57;;;5.70;99.90;;;;;;5032914;28;20036;-75
2021/03/05 06:59:12;;;;;;;9.20;6.40;;;5.60;99.90;;;;;;5018229;28;20508;-75
2021/03/05 07:01:47;;;;;;;11.50;6.43;;;5.60;99.90;;;;;;5042023;28;20056;-76
2021/03/05 07:04:34;;;;;;;8.95;5.78;;;5.80;99.90;;;;;;5028525;28;20432;-75
2021/03/05 07:07:07;;;;;;;15.48;7.85;;;5.90;99.90;;;;;;5023985;28;20041;-75
2021/03/05 07:09:39;;;;;;;10.82;6.22;;;6.00;99.90;;;;;;5049415;28;20029;-75
2021/03/05 07:12:21;;;;;;;11.05;6.22;;;6.00;99.90;;;;;;5036770;28;20022;-75
2021/03/05 07:15:09;;;;;;;8.68;5.93;;;6.20;99.90;;;;;;5033589;28;20033;-75
2021/03/05 07:17:36;;;;;;;9.00;6.13;;;6.00;99.90;;;;;;5040124;28;20402;-75
2021/03/05 07:20:04;;;;;;;9.38;5.97;;;6.00;99.90;;;;;;5045649;28;20075;-76
2021/03/05 07:22:32;;;;;;;9.25;6.22;;;6.00;99.90;;;;;;5044078;28;20104;-75
2021/03/05 07:25:01;;;;;;;7.70;5.70;;;5.90;99.90;;;;;;5026822;28;20032;-75
2021/03/05 07:27:49;;;;;;;12.40;6.32;;;6.10;99.90;;;;;;5047511;28;20104;-75
2021/03/05 07:30:19;;;;;;;12.65;6.75;;;6.20;99.90;;;;;;5037830;28;20095;-76
2021/03/05 07:32:47;;;;;;;11.15;7.13;;;6.20;99.90;;;;;;5044401;28;20038;-75
2021/03/05 07:35:24;;;;;;;10.68;6.68;;;6.20;99.90;;;;;;5043002;28;20055;-73
2021/03/05 07:37:54;;;;;;;10.65;7.07;;;6.20;99.90;;;;;;5049018;28;20089;-75
2021/03/05 07:40:20;;;;;;;11.40;7.57;;;6.20;99.90;;;;;;5041827;28;20060;-76
2021/03/05 07:42:46;;;;;;;14.45;7.32;;;6.20;99.90;;;;;;5047627;28;20033;-75
2021/03/05 07:45:13;;;;;;;17.25;8.68;;;6.30;99.90;;;;;;5034725;28;20021;-76
2021/03/05 07:47:43;;;;;;;16.52;8.98;;;6.20;99.90;;;;;;5021330;28;20025;-75
2021/03/05 07:50:10;;;;;;;14.57;8.98;;;6.00;99.90;;;;;;5025924;28;20091;-75
2021/03/05 07:52:37;;;;;;;16.40;8.73;;;6.00;99.90;;;;;;5028854;28;20390;-75
2021/03/05 07:55:04;;;;;;;18.35;9.35;;;6.10;99.90;;;;;;5006256;28;20037;-75
2021/03/05 07:57:30;;;;;;;14.57;8.80;;;6.00;99.90;;;;;;5018592;28;20021;-75
2021/03/05 07:59:58;;;;;;;13.25;8.32;;;5.90;99.90;;;;;;5047800;28;20083;-76
2021/03/05 08:02:27;;;;;;;12.38;8.15;;;5.70;99.90;;;;;;5045418;28;20056;-75
2021/03/05 08:04:53;;;;;;;14.35;8.75;;;5.60;99.90;;;;;;5006217;28;20033;-75
2021/03/05 08:07:19;;;;;;;15.15;9.85;;;5.50;99.90;;;;;;5021701;28;20499;-76
2021/03/05 08:09:45;;;;;;;16.20;8.13;;;5.50;99.90;;;;;;5048425;28;20037;-75
2021/03/05 08:15:08;;;;;;;16.67;8.77;;;5.70;99.90;;;;;;5042013;28;20067;-76
2021/03/05 08:17:35;;;;;;;11.68;7.38;;;5.50;99.90;;;;;;5046072;28;20114;-76
2021/03/05 08:20:02;;;;;;;13.43;7.50;;;5.60;99.90;;;;;;5044782;28;20029;-75
2021/03/05 08:22:28;;;;;;;15.88;8.13;;;5.40;99.90;;;;;;5036824;28;20032;-75
2021/03/05 08:25:22;;;;;;;9.25;6.78;;;5.50;99.90;;;;;;5051702;28;20025;-75
2021/03/05 08:27:48;;;;;;;21.50;11.65;;;5.40;99.90;;;;;;5024696;28;20444;-75
2021/03/05 08:30:17;;;;;;;11.18;7.65;;;5.30;99.90;;;;;;5025110;28;20056;-75
2021/03/05 08:33:04;;;;;;;15.57;8.70;;;5.40;99.90;;;;;;5020137;28;20064;-75
2021/03/05 08:35:30;;;;;;;15.93;9.27;;;5.40;99.90;;;;;;5047392;28;20108;-75
2021/03/05 08:38:04;;;;;;;16.88;9.15;;;5.30;99.90;;;;;;5033215;28;20644;-75
2021/03/05 08:40:37;;;;;;;16.15;10.57;;;5.30;99.90;;;;;;5045806;28;20041;-75
2021/03/05 08:43:20;;;;;;;19.75;10.63;;;5.30;99.90;;;;;;5025012;28;20032;-75
2021/03/05 08:45:46;;;;;;;19.42;9.73;;;5.40;99.90;;;;;;5025784;28;20051;-75
2021/03/05 08:48:23;;;;;;;14.88;8.40;;;5.30;99.90;;;;;;5043857;28;20029;-75
2021/03/05 08:50:50;;;;;;;15.52;8.98;;;5.20;99.90;;;;;;5029808;28;20024;-76
2021/03/05 08:53:16;;;;;;;13.73;8.70;;;5.20;99.90;;;;;;5048286;28;20029;-75
2021/03/05 08:55:44;;;;;;;10.50;7.60;;;5.30;99.90;;;;;;5027486;28;20581;-75
2021/03/05 08:58:16;;;;;;;9.60;7.07;;;5.20;99.90;;;;;;5025376;28;20018;-75
2021/03/05 09:00:43;;;;;;;11.55;6.85;;;5.20;99.90;;;;;;5033417;28;20049;-75
2021/03/05 09:03:10;;;;;;;10.57;6.97;;;5.30;99.90;;;;;;5005517;28;20029;-75
2021/03/05 09:05:39;;;;;;;9.80;7.05;;;5.40;99.90;;;;;;5022758;28;20037;-75
2021/03/05 09:08:06;;;;;;;7.35;5.70;;;5.20;99.90;;;;;;5037685;28;20029;-75
2021/03/05 09:10:41;;;;;;;10.93;5.93;;;5.20;99.90;;;;;;5042755;28;20112;-75
2021/03/05 09:13:07;;;;;;;9.75;6.55;;;5.20;99.90;;;;;;5037731;28;20505;-75
2021/03/05 09:15:40;;;;;;;7.43;4.80;;;5.10;99.90;;;;;;5045334;28;20396;-75
2021/03/05 09:18:06;;;;;;;8.27;5.22;;;5.00;99.90;;;;;;5028804;28;20025;-75
2021/03/05 09:20:48;;;;;;;6.93;5.07;;;5.00;99.90;;;;;;5020757;28;20580;-75
2021/03/05 09:23:15;;;;;;;13.38;6.88;;;5.00;99.90;;;;;;5025592;28;20080;-75
2021/03/05 09:25:55;;;;;;;7.15;5.50;;;5.00;99.90;;;;;;5036121;28;20032;-75
2021/03/05 09:28:26;;;;;;;8.50;5.68;;;5.00;99.90;;;;;;5033001;28;20048;-75
2021/03/05 09:30:55;;;;;;;8.80;6.00;;;5.00;99.90;;;;;;5027921;28;20029;-75
2021/03/05 09:33:35;;;;;;;8.13;5.80;;;4.90;99.90;;;;;;5003451;28;20026;-75
2021/03/05 09:36:07;;;;;;;8.52;4.95;;;4.70;99.90;;;;;;5047080;28;20086;-75
2021/03/05 09:38:33;;;;;;;;;;;4.60;99.90;;;;;;5025257;28;20048;-75
2021/03/05 09:41:20;;;;;;;9.80;4.53;;;4.80;99.90;;;;;;5046819;28;19909;-75
2021/03/05 09:44:00;;;;;;;6.95;4.90;;;4.80;99.90;;;;;;5024609;28;20140;-75
2021/03/05 09:46:27;;;;;;;7.43;5.57;;;4.80;99.90;;;;;;5053283;28;20039;-75
2021/03/05 09:48:54;;;;;;;9.20;7.28;;;4.70;99.90;;;;;;5040302;28;20397;-75
2021/03/05 09:51:21;;;;;;;10.48;6.15;;;4.70;99.90;;;;;;5038313;28;20056;-75
2021/03/05 09:53:53;;;;;;;9.23;5.53;;;4.50;99.90;;;;;;5046656;28;20039;-75
2021/03/05 09:56:22;;;;;;;12.52;6.72;;;4.30;99.90;;;;;;5036977;28;20082;-75
2021/03/05 09:58:57;;;;;;;9.45;6.15;;;4.40;99.90;;;;;;5045229;28;20496;-75
2021/03/05 10:01:24;;;;;;;12.55;6.82;;;4.70;99.90;;;;;;5041475;28;20075;-75
2021/03/05 10:03:57;;;;;;;11.18;7.05;;;4.80;99.90;;;;;;5041730;28;20052;-75
2021/03/05 10:06:24;;;;;;;9.55;7.28;;;4.80;99.90;;;;;;5038584;28;20074;-75
2021/03/05 10:09:25;;;;;;;16.10;10.27;;;4.70;99.90;;;;;;5024494;28;20449;-75
2021/03/05 10:11:54;;;;;;;9.63;6.45;;;4.70;99.90;;;;;;4944172;28;20042;-75
2021/03/05 10:14:24;;;;;;;9.30;6.80;;;4.70;99.90;;;;;;5028879;28;20094;-75
2021/03/05 10:16:51;;;;;;;11.45;6.38;;;4.70;99.90;;;;;;5043778;28;20481;-75
2021/03/05 10:19:21;;;;;;;8.75;6.60;;;4.80;99.90;;;;;;5044628;28;20028;-75
2021/03/05 10:21:50;;;;;;;11.80;6.32;;;4.80;99.90;;;;;;5028660;28;20044;-75
2021/03/05 10:24:27;;;;;;;11.07;7.22;;;4.80;99.90;;;;;;5001853;28;20489;-75
2021/03/05 10:29:57;;;;;;;14.65;9.30;;;4.20;99.90;;;;;;5038090;28;20502;-75
2021/03/05 10:32:37;;;;;;;19.77;10.85;;;3.90;99.90;;;;;;5010798;28;20045;-75
2021/03/05 10:35:11;;;;;;;19.83;11.30;;;3.90;99.90;;;;;;5021696;28;20105;-75
2021/03/05 10:37:38;;;;;;;24.33;14.00;;;3.70;99.90;;;;;;5040464;28;20025;-75
2021/03/05 10:40:06;;;;;;;24.70;14.90;;;4.00;99.90;;;;;;5040109;28;20567;-75
2021/03/05 10:42:32;;;;;;;26.75;14.80;;;4.00;99.90;;;;;;5040030;28;20118;-75
2021/03/05 10:44:58;;;;;;;22.35;13.80;;;3.80;99.90;;;;;;5040366;28;20061;-78
2021/03/05 10:47:24;;;;;;;20.17;12.23;;;3.70;99.90;;;;;;5040480;28;20033;-75
2021/03/05 10:49:51;;;;;;;17.95;11.10;;;3.70;99.90;;;;;;5040479;28;20033;-76
2021/03/05 10:52:19;;;;;;;26.83;12.07;;;3.80;99.90;;;;;;5027374;28;20064;-75
2021/03/05 10:54:46;;;;;;;19.60;11.90;;;3.90;99.90;;;;;;5021973;28;20480;-75
2021/03/05 10:57:13;;;;;;;24.33;14.32;;;3.80;99.90;;;;;;5038776;28;20372;-75
2021/03/05 10:59:40;;;;;;;30.15;16.38;;;3.70;99.90;;;;;;5036694;28;20028;-75
2021/03/05 11:02:06;;;;;;;21.95;13.45;;;3.70;99.90;;;;;;5031691;28;20026;-75
2021/03/05 11:04:31;;;;;;;21.45;12.00;;;4.00;99.90;;;;;;5031751;28;20072;-75
2021/03/05 11:06:57;;;;;;;28.05;11.93;;;4.10;99.90;;;;;;5032259;28;20041;-75
2021/03/05 11:09:25;;;;;;;25.45;13.07;;;4.00;99.90;;;;;;5032193;28;20087;-75
2021/03/05 11:11:51;;;;;;;40.08;23.02;;;4.10;99.90;;;;;;5047510;28;20021;-76
2021/03/05 11:14:17;;;;;;;25.27;15.52;;;4.10;99.90;;;;;;5051637;28;20052;-75
2021/03/05 11:16:43;;;;;;;35.45;17.30;;;4.10;99.90;;;;;;5041110;28;20022;-75
2021/03/05 11:19:09;;;;;;;20.38;13.57;;;4.10;99.90;;;;;;5031617;28;20049;-75
2021/03/05 11:21:35;;;;;;;24.27;13.43;;;3.90;99.90;;;;;;5034879;28;20527;-75
2021/03/05 11:24:02;;;;;;;22.92;14.02;;;4.00;99.90;;;;;;5051474;28;20021;-75
2021/03/05 11:26:28;;;;;;;20.02;11.73;;;4.10;99.90;;;;;;5051404;28;20369;-75
2021/03/05 11:28:54;;;;;;;28.20;15.60;;;4.10;99.90;;;;;;5032895;28;20473;-75
2021/03/05 11:31:21;;;;;;;28.85;16.67;;;4.10;99.90;;;;;;5051580;28;20052;-75
2021/03/05 11:33:47;;;;;;;24.27;15.90;;;4.00;99.90;;;;;;5040230;28;20045;-75
2021/03/05 11:36:13;;;;;;;27.42;14.95;;;3.90;99.90;;;;;;5031495;28;20026;-75
2021/03/05 11:38:41;;;;;;;29.05;17.17;;;4.00;99.90;;;;;;5031320;28;20026;-75
2021/03/05 11:41:07;;;;;;;33.50;15.60;;;3.90;99.90;;;;;;5031586;28;20159;-75
2021/03/05 11:43:33;;;;;;;31.77;17.98;;;4.00;99.90;;;;;;5014014;28;20029;-76
2021/03/05 11:45:59;;;;;;;29.83;17.38;;;4.10;99.90;;;;;;5019029;28;20026;-75
2021/03/05 11:48:25;;;;;;;27.67;16.17;;;4.20;99.90;;;;;;5043805;28;20038;-75
2021/03/05 11:50:51;;;;;;;32.28;16.20;;;4.30;99.90;;;;;;5044456;28;20094;-75
2021/03/05 11:53:17;;;;;;;31.27;15.38;;;4.40;99.90;;;;;;5036735;28;20415;-75
2021/03/05 11:55:43;;;;;;;34.03;21.42;;;4.40;99.90;;;;;;5016977;28;20108;-75
2021/03/05 11:58:09;;;;;;;34.67;19.42;;;4.40;99.90;;;;;;5038580;28;20439;-75
2021/03/05 12:00:35;;;;;;;31.90;17.17;;;4.50;99.90;;;;;;5046052;28;20021;-76
2021/03/05 12:03:01;;;;;;;30.85;16.63;;;4.50;99.90;;;;;;5044519;28;20543;-76
2021/03/05 12:05:27;;;;;;;26.60;14.20;;;4.50;99.90;;;;;;5026879;28;20485;-75
2021/03/05 12:07:52;;;;;;;29.10;13.23;;;4.30;99.90;;;;;;5042589;28;20025;-76
2021/03/05 12:10:18;;;;;;;21.50;12.63;;;4.40;99.90;;;;;;5024761;28;20021;-75
2021/03/05 12:12:44;;;;;;;20.23;12.07;;;4.30;99.90;;;;;;5013643;28;20053;-75
2021/03/05 12:15:10;;;;;;;24.60;13.45;;;4.40;99.90;;;;;;5025475;28;20060;-75
2021/03/05 12:17:36;;;;;;;24.77;13.48;;;4.50;99.90;;;;;;5041671;28;20017;-76
2021/03/05 12:20:04;;;;;;;28.25;16.30;;;4.60;99.90;;;;;;5044097;28;20362;-76
2021/03/05 12:22:29;;;;;;;25.75;14.70;;;4.30;99.90;;;;;;5034036;28;20025;-76
2021/03/05 12:24:55;;;;;;;26.42;13.43;;;4.30;99.90;;;;;;5024327;28;20032;-75
2021/03/05 12:27:22;;;;;;;28.05;15.20;;;4.30;99.90;;;;;;5021700;28;20510;-75
2021/03/05 12:29:47;;;;;;;22.08;12.20;;;4.10;99.90;;;;;;5025058;28;20029;-75
2021/03/05 12:32:13;;;;;;;22.05;11.45;;;4.30;99.90;;;;;;5030742;28;20358;-75
2021/03/05 12:34:39;;;;;;;20.42;12.93;;;4.30;99.90;;;;;;5040035;28;20033;-76
2021/03/05 12:37:05;;;;;;;21.77;12.18;;;4.20;99.90;;;;;;5024449;28;20033;-75
2021/03/05 12:39:31;;;;;;;23.73;11.95;;;4.20;99.90;;;;;;5013502;28;20031;-75
2021/03/05 12:41:56;;;;;;;22.75;12.27;;;4.20;99.90;;;;;;5040578;28;20048;-75
2021/03/05 12:44:22;;;;;;;20.83;13.65;;;4.30;99.90;;;;;;5022494;28;20091;-75
2021/03/05 12:46:48;;;;;;;18.13;11.32;;;4.50;99.90;;;;;;5022771;28;20067;-75
2021/03/05 12:49:14;;;;;;;22.95;14.88;;;4.50;99.90;;;;;;5028514;28;20023;-75
2021/03/05 12:51:39;;;;;;;21.27;11.70;;;4.50;99.90;;;;;;5043685;28;20033;-75
2021/03/05 12:54:05;;;;;;;22.13;11.50;;;4.40;99.90;;;;;;5034488;28;20021;-75
2021/03/05 12:56:32;;;;;;;22.77;11.63;;;4.40;99.90;;;;;;5043445;28;20029;-75
2021/03/05 12:58:58;;;;;;;21.13;11.55;;;4.50;99.90;;;;;;5039091;28;20062;-75
2021/03/05 13:01:24;;;;;;;22.30;11.45;;;4.40;99.90;;;;;;5045457;28;20037;-76
2021/03/05 13:03:49;;;;;;;21.23;11.02;;;4.50;99.90;;;;;;5042855;28;20021;-75